Time;durP1;ratioP1;P1;durP2;ratioP2;P2;SDS_P1;SDS_P2;PMS_P1;PMS_P2;Temp;Humidity;BMP_temperature;BMP_pressure;BME280_temperature;BME280_humidity;BME280_pressure;Samples;Min_cycle;Max_cycle;Signal;HPM_P1;HPM_P2
2021/03/26 00:01:45;;;;;;;14.98;5.22;;;6.60;62.90;;;;;;6208770;23;20024;-69
2021/03/26 00:04:11;;;;;;;11.75;4.80;;;6.60;62.80;;;;;;6180017;23;20066;-69
2021/03/26 00:06:38;;;;;;;8.57;4.63;;;6.60;63.00;;;;;;6204154;23;20000;-69
2021/03/26 00:09:08;;;;;;;8.73;4.95;;;6.60;63.90;;;;;;6241602;23;20000;-69
2021/03/26 00:11:33;;;;;;;8.52;5.15;;;6.70;63.00;;;;;;6256780;23;20011;-69
2021/03/26 00:13:59;;;;;;;9.25;4.97;;;6.50;62.10;;;;;;6232417;23;20295;-70
2021/03/26 00:16:24;;;;;;;10.32;5.25;;;6.40;62.10;;;;;;6220386;23;20287;-70
2021/03/26 00:18:50;;;;;;;11.77;5.07;;;6.30;62.40;;;;;;6156814;23;20004;-70
2021/03/26 00:21:16;;;;;;;13.68;5.10;;;6.40;62.10;;;;;;6268558;23;20026;-70
2021/03/26 00:23:42;;;;;;;14.95;5.20;;;6.40;62.80;;;;;;6226048;22;20051;-70
2021/03/26 00:26:07;;;;;;;9.25;4.57;;;6.40;63.90;;;;;;6249483;23;20004;-69
2021/03/26 00:28:33;;;;;;;15.60;5.18;;;6.40;63.50;;;;;;6234114;23;20011;-69
2021/03/26 00:30:58;;;;;;;8.60;5.20;;;6.40;63.10;;;;;;6236466;23;20004;-70
2021/03/26 00:33:24;;;;;;;9.52;5.07;;;6.40;63.00;;;;;;6213810;23;20091;-69
2021/03/26 00:35:50;;;;;;;11.65;4.40;;;6.40;63.70;;;;;;6241825;23;20008;-70
2021/03/26 00:38:15;;;;;;;9.10;4.40;;;6.30;64.60;;;;;;6258139;23;20009;-70
2021/03/26 00:40:41;;;;;;;8.95;4.80;;;6.30;64.60;;;;;;6260255;23;20084;-70
2021/03/26 00:43:07;;;;;;;8.75;4.53;;;6.30;65.00;;;;;;6262494;23;20060;-69
2021/03/26 00:45:34;;;;;;;7.97;4.70;;;6.40;64.90;;;;;;6237915;23;19996;-69
2021/03/26 00:47:59;;;;;;;7.40;4.47;;;6.40;64.10;;;;;;6268259;23;20019;-69
2021/03/26 00:50:29;;;;;;;6.57;4.32;;;6.50;62.80;;;;;;6257271;23;20012;-70
2021/03/26 00:52:56;;;;;;;9.60;4.97;;;6.40;62.70;;;;;;6232860;23;20307;-70
2021/03/26 00:55:22;;;;;;;9.20;4.82;;;6.40;61.90;;;;;;6235120;23;20008;-70
2021/03/26 00:57:47;;;;;;;10.75;5.10;;;6.40;61.50;;;;;;6231802;23;20039;-69
2021/03/26 01:00:17;;;;;;;9.07;5.18;;;6.40;62.10;;;;;;6235989;23;20003;-70
2021/03/26 01:02:42;;;;;;;8.13;4.65;;;6.40;62.20;;;;;;6169178;23;20021;-69
2021/03/26 01:05:10;;;;;;;7.53;4.55;;;6.30;61.50;;;;;;6197386;23;20009;-70
2021/03/26 01:07:35;;;;;;;8.85;4.65;;;6.40;61.80;;;;;;6198051;23;20067;-69
2021/03/26 01:10:01;;;;;;;9.27;4.80;;;6.40;61.60;;;;;;6202026;23;20300;-70
2021/03/26 01:12:26;;;;;;;9.30;4.38;;;6.50;61.50;;;;;;6203068;23;20005;-69
2021/03/26 01:14:52;;;;;;;9.68;5.28;;;6.40;61.40;;;;;;6195621;23;20048;-69
2021/03/26 01:17:17;;;;;;;9.73;4.88;;;6.40;61.10;;;;;;6170829;23;20009;-69
2021/03/26 01:19:43;;;;;;;14.38;4.50;;;6.40;61.80;;;;;;6202794;23;20004;-69
2021/03/26 01:22:10;;;;;;;8.32;4.35;;;6.40;62.00;;;;;;6231882;23;20005;-69
2021/03/26 01:24:36;;;;;;;7.35;4.45;;;6.40;61.90;;;;;;6207473;23;19992;-69
2021/03/26 01:27:02;;;;;;;9.15;4.70;;;6.40;61.60;;;;;;6237446;23;20023;-69
2021/03/26 01:29:27;;;;;;;8.15;4.68;;;6.40;61.30;;;;;;6198607;23;20013;-69
2021/03/26 01:31:53;;;;;;;8.93;4.45;;;6.50;60.00;;;;;;6201985;23;20009;-69
2021/03/26 01:34:18;;;;;;;8.05;4.65;;;6.60;60.80;;;;;;6204134;23;20001;-69
2021/03/26 01:36:44;;;;;;;9.65;4.60;;;6.50;60.30;;;;;;6201650;23;20005;-70
2021/03/26 01:39:09;;;;;;;9.70;4.53;;;6.30;60.90;;;;;;6205438;23;20291;-70
2021/03/26 01:41:43;;;;;;;12.00;4.40;;;6.30;61.30;;;;;;6199606;23;20079;-70
2021/03/26 01:44:09;;;;;;;10.38;4.97;;;6.30;61.70;;;;;;6202758;23;20009;-70
2021/03/26 01:46:36;;;;;;;10.15;4.72;;;6.10;62.70;;;;;;6203559;23;20299;-70
2021/03/26 01:49:02;;;;;;;7.70;4.22;;;5.90;63.20;;;;;;6196608;23;20016;-71
2021/03/26 01:51:36;;;;;;;8.40;4.30;;;5.90;63.90;;;;;;6177592;23;20188;-70
2021/03/26 01:54:03;;;;;;;12.75;4.80;;;5.70;64.80;;;;;;6205410;23;20169;-71
2021/03/26 01:56:28;;;;;;;7.40;4.50;;;5.60;64.90;;;;;;6199854;23;20104;-71
2021/03/26 01:58:54;;;;;;;7.40;4.10;;;5.60;65.00;;;;;;6196502;23;20013;-71
2021/03/26 02:01:22;;;;;;;7.47;4.68;;;5.90;63.70;;;;;;6196231;23;20229;-71
2021/03/26 02:03:49;;;;;;;8.57;4.63;;;5.80;64.10;;;;;;6144764;23;20239;-70
2021/03/26 02:06:20;;;;;;;11.32;4.65;;;5.70;63.90;;;;;;6205883;23;20227;-71
2021/03/26 02:08:46;;;;;;;9.10;4.60;;;5.60;64.50;;;;;;6223800;23;20031;-71
2021/03/26 02:11:31;;;;;;;8.45;4.32;;;5.70;64.40;;;;;;6227171;23;20284;-71
2021/03/26 02:13:57;;;;;;;7.85;4.38;;;5.60;64.50;;;;;;6226434;23;20326;-71
2021/03/26 02:16:23;;;;;;;9.00;4.57;;;5.60;64.90;;;;;;6203648;23;20012;-71
2021/03/26 02:18:48;;;;;;;9.05;4.35;;;5.80;65.40;;;;;;6181018;23;20020;-71
2021/03/26 02:21:26;;;;;;;6.60;3.75;;;5.80;65.10;;;;;;6235249;23;20024;-71
2021/03/26 02:23:52;;;;;;;6.90;4.32;;;5.60;65.80;;;;;;6224318;23;20020;-71
2021/03/26 02:26:26;;;;;;;9.60;4.57;;;5.50;66.40;;;;;;6225206;23;20009;-71
2021/03/26 02:28:52;;;;;;;14.27;4.53;;;5.40;67.00;;;;;;6202764;23;20012;-71
2021/03/26 02:31:17;;;;;;;8.85;4.30;;;5.40;67.10;;;;;;6230491;23;20026;-71
2021/03/26 02:33:43;;;;;;;8.35;4.63;;;5.30;67.20;;;;;;6231154;23;20052;-71
2021/03/26 02:36:18;;;;;;;9.45;4.45;;;5.40;66.30;;;;;;6210280;23;20000;-71
2021/03/26 02:38:48;;;;;;;7.65;4.18;;;5.70;65.40;;;;;;6224322;23;20203;-71
2021/03/26 02:41:30;;;;;;;8.98;4.97;;;5.90;64.90;;;;;;6225445;23;20055;-71
2021/03/26 02:44:25;;;;;;;9.65;4.82;;;5.70;64.80;;;;;;6173162;23;20203;-71
2021/03/26 02:46:56;;;;;;;8.38;4.65;;;5.60;65.20;;;;;;6207975;23;20035;-71
2021/03/26 02:49:47;;;;;;;16.85;5.53;;;5.60;64.70;;;;;;6204151;23;20058;-71
2021/03/26 02:52:24;;;;;;;9.70;4.63;;;5.50;65.40;;;;;;6205448;23;20001;-71
2021/03/26 02:55:01;;;;;;;8.55;4.60;;;5.40;64.80;;;;;;6230101;23;19997;-70
2021/03/26 02:57:44;;;;;;;9.90;4.45;;;5.30;65.50;;;;;;6232374;23;20343;-70
2021/03/26 03:00:38;;;;;;;9.13;4.70;;;5.40;65.00;;;;;;6211070;23;20001;-71
2021/03/26 03:03:04;;;;;;;8.32;4.80;;;5.30;65.10;;;;;;6176251;23;20109;-71
2021/03/26 03:05:41;;;;;;;13.30;4.70;;;5.20;65.70;;;;;;6198984;23;20020;-71
2021/03/26 03:08:10;;;;;;;9.43;4.82;;;5.30;65.50;;;;;;6175308;23;20013;-71
2021/03/26 03:10:48;;;;;;;9.63;5.10;;;5.10;66.20;;;;;;6172661;23;20207;-71
2021/03/26 03:13:26;;;;;;;9.38;5.05;;;5.00;66.50;;;;;;6206040;23;20051;-71
2021/03/26 03:16:05;;;;;;;9.93;4.95;;;5.00;66.90;;;;;;6205427;23;20005;-72
2021/03/26 03:18:33;;;;;;;8.60;5.03;;;5.30;66.70;;;;;;6206756;23;20047;-71
2021/03/26 03:21:03;;;;;;;7.97;5.07;;;5.30;66.20;;;;;;6210100;23;20161;-71
2021/03/26 03:23:39;;;;;;;8.25;4.97;;;5.20;66.80;;;;;;6173203;23;20076;-71
2021/03/26 03:26:27;;;;;;;9.18;5.00;;;5.00;67.00;;;;;;6202200;23;20020;-71
2021/03/26 03:29:31;;;;;;;8.82;5.10;;;4.90;67.30;;;;;;6227721;23;20008;-71
2021/03/26 03:32:25;;;;;;;11.65;5.03;;;4.90;67.60;;;;;;6197259;23;20044;-71
2021/03/26 03:34:57;;;;;;;11.13;4.70;;;4.80;67.90;;;;;;6220256;23;20009;-71
2021/03/26 03:37:57;;;;;;;7.38;4.55;;;4.80;68.00;;;;;;6205509;23;20005;-71
2021/03/26 03:40:47;;;;;;;10.15;4.72;;;4.80;68.10;;;;;;6217118;23;20044;-71
2021/03/26 03:43:35;;;;;;;10.02;4.72;;;4.70;68.80;;;;;;6176147;23;20001;-71
2021/03/26 03:46:05;;;;;;;12.52;4.68;;;4.60;68.60;;;;;;6180135;23;20001;-71
2021/03/26 03:49:16;;;;;;;9.50;5.03;;;4.80;68.60;;;;;;6204329;23;20001;-71
2021/03/26 03:51:49;;;;;;;10.17;4.67;;;4.90;68.00;;;;;;6169984;23;20306;-71
2021/03/26 03:54:30;;;;;;;8.35;4.30;;;4.90;67.80;;;;;;6207850;23;20231;-71
2021/03/26 03:57:09;;;;;;;7.80;4.07;;;4.80;67.90;;;;;;6225828;23;20291;-71
2021/03/26 03:59:39;;;;;;;9.68;4.60;;;4.90;67.40;;;;;;6200219;23;20013;-71
2021/03/26 04:02:15;;;;;;;7.63;4.00;;;4.80;67.60;;;;;;6216618;23;20020;-71
2021/03/26 04:05:04;;;;;;;7.72;3.83;;;4.90;67.20;;;;;;6180622;23;20031;-71
2021/03/26 04:07:53;;;;;;;7.05;3.85;;;4.90;67.30;;;;;;6218285;23;20199;-71
2021/03/26 04:10:19;;;;;;;7.35;4.05;;;4.80;68.00;;;;;;6230169;23;20011;-71
2021/03/26 04:12:46;;;;;;;8.93;4.53;;;4.90;66.40;;;;;;6232621;23;20001;-71
2021/03/26 04:15:17;;;;;;;9.15;3.88;;;4.70;66.10;;;;;;6186746;23;20007;-71
2021/03/26 04:17:56;;;;;;;7.03;3.87;;;4.50;65.80;;;;;;6225800;23;20008;-71
2021/03/26 04:20:45;;;;;;;8.55;4.30;;;4.40;66.10;;;;;;6202319;23;20228;-71
2021/03/26 04:23:16;;;;;;;7.72;3.97;;;4.60;66.40;;;;;;6202872;23;20009;-71
2021/03/26 04:25:44;;;;;;;7.97;4.03;;;4.40;66.40;;;;;;6204764;23;20011;-71
2021/03/26 04:28:13;;;;;;;6.43;3.85;;;4.30;67.20;;;;;;6180858;23;20046;-71
2021/03/26 04:30:53;;;;;;;9.02;4.15;;;4.30;67.10;;;;;;6208079;23;20106;-71
2021/03/26 04:33:18;;;;;;;7.20;4.18;;;4.30;67.90;;;;;;6188173;23;20031;-71
2021/03/26 04:35:46;;;;;;;7.22;4.00;;;4.40;68.50;;;;;;6224951;23;20012;-71
2021/03/26 04:38:37;;;;;;;10.10;4.72;;;4.30;68.40;;;;;;6201798;23;20004;-71
2021/03/26 04:41:13;;;;;;;8.82;4.07;;;4.40;68.30;;;;;;6223447;23;20058;-71
2021/03/26 04:43:54;;;;;;;7.72;3.90;;;4.40;68.40;;;;;;6179478;23;20012;-71
2021/03/26 04:46:24;;;;;;;11.27;4.32;;;4.30;68.80;;;;;;6230168;23;20325;-71
2021/03/26 04:48:58;;;;;;;8.52;3.88;;;4.50;68.30;;;;;;6206885;23;20009;-71
2021/03/26 04:51:40;;;;;;;11.27;4.50;;;4.50;67.90;;;;;;6210136;23;20052;-71
2021/03/26 04:54:17;;;;;;;8.63;3.95;;;4.40;67.70;;;;;;6237414;23;20003;-72
2021/03/26 04:57:06;;;;;;;10.23;4.00;;;4.40;67.40;;;;;;6201042;23;20060;-72
2021/03/26 04:59:48;;;;;;;9.25;4.20;;;4.20;67.90;;;;;;6212681;23;20012;-72
2021/03/26 05:02:14;;;;;;;9.32;4.50;;;4.30;67.50;;;;;;6225792;23;20024;-73
2021/03/26 05:04:42;;;;;;;10.48;3.67;;;4.20;68.00;;;;;;6227420;23;20008;-72
2021/03/26 05:07:20;;;;;;;6.95;3.78;;;4.30;67.60;;;;;;6230569;23;20009;-73
2021/03/26 05:09:48;;;;;;;7.80;3.90;;;4.30;67.60;;;;;;6208294;23;20299;-73
2021/03/26 05:12:16;;;;;;;7.22;3.80;;;4.20;68.30;;;;;;6236247;23;20292;-73
2021/03/26 05:14:45;;;;;;;8.02;4.30;;;4.10;68.60;;;;;;6199495;23;20028;-73
2021/03/26 05:17:36;;;;;;;7.68;4.00;;;4.10;69.00;;;;;;6201907;23;20016;-73
2021/03/26 05:20:17;;;;;;;9.43;3.58;;;4.20;69.00;;;;;;6213930;23;20059;-72
2021/03/26 05:22:53;;;;;;;8.98;4.13;;;4.20;69.00;;;;;;6205264;23;20302;-73
2021/03/26 05:25:26;;;;;;;7.78;3.90;;;4.20;69.00;;;;;;6229567;23;20000;-73
2021/03/26 05:27:52;;;;;;;7.72;3.95;;;4.20;69.00;;;;;;6206602;23;20005;-73
2021/03/26 05:30:23;;;;;;;9.65;4.43;;;4.20;69.10;;;;;;6210661;23;20191;-74
2021/03/26 05:33:18;;;;;;;17.52;4.22;;;4.30;68.40;;;;;;6224734;23;20063;-72
2021/03/26 05:35:50;;;;;;;10.35;4.25;;;4.20;68.10;;;;;;6224375;23;20290;-71
2021/03/26 05:38:18;;;;;;;9.90;4.53;;;4.30;68.20;;;;;;6225986;23;20028;-70
2021/03/26 05:40:47;;;;;;;7.18;3.85;;;4.10;68.20;;;;;;6203230;23;20012;-69
2021/03/26 05:43:27;;;;;;;7.10;3.80;;;4.30;68.60;;;;;;6229653;23;20047;-70
2021/03/26 05:46:06;;;;;;;8.70;4.23;;;4.30;69.10;;;;;;6199315;23;20042;-70
2021/03/26 05:49:08;;;;;;;10.57;4.38;;;4.30;68.70;;;;;;6174812;23;20005;-70
2021/03/26 05:52:07;;;;;;;9.27;4.30;;;4.30;68.90;;;;;;6233607;23;20056;-70
2021/03/26 05:54:53;;;;;;;10.00;4.20;;;4.50;68.90;;;;;;6232258;23;20003;-71
2021/03/26 05:57:25;;;;;;;13.48;4.53;;;4.50;68.90;;;;;;6235636;23;20001;-72
2021/03/26 06:00:20;;;;;;;8.00;4.40;;;4.60;69.20;;;;;;6200328;23;20019;-74
2021/03/26 06:03:00;;;;;;;14.95;4.85;;;4.80;68.50;;;;;;6253132;23;20020;-74
2021/03/26 06:05:49;;;;;;;16.20;5.00;;;4.90;68.60;;;;;;6256636;23;20039;-74
2021/03/26 06:08:21;;;;;;;17.65;4.68;;;4.90;68.50;;;;;;6205384;23;20177;-74
2021/03/26 06:11:11;;;;;;;15.68;4.50;;;5.00;68.00;;;;;;6206937;23;20004;-74
2021/03/26 06:14:15;;;;;;;12.13;4.30;;;5.20;67.00;;;;;;6259881;23;20226;-74
2021/03/26 06:17:20;;;;;;;15.30;5.07;;;5.30;67.10;;;;;;6197807;23;20009;-74
2021/03/26 06:20:15;;;;;;;10.40;4.20;;;5.40;65.70;;;;;;6194452;23;20009;-71
2021/03/26 06:22:52;;;;;;;12.00;3.80;;;5.60;65.00;;;;;;6178038;23;20008;-74
2021/03/26 06:25:36;;;;;;;12.40;3.92;;;6.00;64.20;;;;;;6230487;23;20008;-74
2021/03/26 06:28:22;;;;;;;9.48;3.95;;;6.20;63.60;;;;;;6231344;23;20244;-74
2021/03/26 06:31:02;;;;;;;10.45;3.47;;;6.40;63.00;;;;;;6186609;23;20011;-71
2021/03/26 06:33:42;;;;;;;12.27;3.83;;;6.80;61.30;;;;;;6227550;23;20007;-73
2021/03/26 06:36:38;;;;;;;9.10;3.45;;;7.10;60.50;;;;;;6240578;23;20014;-73
2021/03/26 06:39:22;;;;;;;15.40;4.10;;;7.30;59.40;;;;;;6255426;23;20015;-72
2021/03/26 06:42:10;;;;;;;8.60;3.35;;;7.50;58.80;;;;;;6255497;23;20255;-74
2021/03/26 06:45:12;;;;;;;13.27;3.65;;;8.00;58.50;;;;;;6255890;23;20004;-74
2021/03/26 06:47:41;;;;;;;16.42;4.05;;;8.40;57.30;;;;;;6255180;23;20004;-74
2021/03/26 06:50:15;;;;;;;7.57;3.22;;;8.80;55.90;;;;;;6256135;23;20045;-74
2021/03/26 06:53:06;;;;;;;7.35;3.17;;;9.50;53.80;;;;;;6202513;23;20011;-74
2021/03/26 06:55:56;;;;;;;9.35;3.72;;;10.20;51.40;;;;;;6237130;23;20024;-74
2021/03/26 06:59:10;;;;;;;19.27;3.83;;;10.60;50.60;;;;;;6259784;22;19996;-74
2021/03/26 07:01:57;;;;;;;16.33;3.70;;;11.00;49.40;;;;;;6168853;23;20020;-74
2021/03/26 07:04:37;;;;;;;8.43;4.50;;;11.40;48.20;;;;;;6212603;23;20271;-73
2021/03/26 07:07:25;;;;;;;8.03;4.67;;;11.90;47.70;;;;;;6197909;23;20078;-73
2021/03/26 07:10:13;;;;;;;7.25;3.90;;;12.20;46.70;;;;;;6205388;23;20613;-73
2021/03/26 07:12:54;;;;;;;6.78;4.30;;;12.60;45.70;;;;;;6206562;23;25270;-73
2021/03/26 07:15:24;;;;;;;17.83;4.03;;;13.00;45.00;;;;;;6233556;23;20000;-73
2021/03/26 07:18:07;;;;;;;13.55;4.50;;;13.40;44.40;;;;;;6174683;23;20290;-73
2021/03/26 07:20:45;;;;;;;14.52;4.82;;;13.80;43.10;;;;;;6224814;23;20000;-73
2021/03/26 07:23:50;;;;;;;17.17;4.45;;;14.00;42.70;;;;;;6224889;23;20004;-73
2021/03/26 07:26:43;;;;;;;8.15;3.97;;;14.50;41.90;;;;;;6224759;23;20000;-73
2021/03/26 07:29:31;;;;;;;18.58;4.25;;;14.80;41.10;;;;;;6218241;23;20001;-73
2021/03/26 07:32:34;;;;;;;7.60;3.60;;;15.10;40.10;;;;;;6197647;23;20000;-73
2021/03/26 07:35:31;;;;;;;11.20;3.90;;;15.30;40.30;;;;;;6219932;23;19997;-73
2021/03/26 07:38:05;;;;;;;10.55;3.63;;;15.70;38.90;;;;;;6225525;23;20103;-73
2021/03/26 07:41:08;;;;;;;11.77;3.42;;;16.10;38.30;;;;;;6228543;23;20008;-73
2021/03/26 07:43:52;;;;;;;12.85;3.22;;;16.20;38.10;;;;;;6200952;23;20005;-73
2021/03/26 07:46:24;;;;;;;7.78;3.22;;;16.50;37.60;;;;;;6230431;23;20019;-73
2021/03/26 07:49:01;;;;;;;8.57;3.83;;;16.80;37.40;;;;;;6231938;23;20024;-73
2021/03/26 07:51:30;;;;;;;11.30;4.00;;;17.10;36.40;;;;;;6206350;23;20019;-73
2021/03/26 07:54:34;;;;;;;12.10;3.65;;;17.30;36.20;;;;;;6209119;23;19996;-73
2021/03/26 07:57:00;;;;;;;10.93;4.68;;;17.60;35.90;;;;;;6224540;23;20004;-73
2021/03/26 07:59:48;;;;;;;10.70;3.42;;;17.90;35.90;;;;;;6224977;23;20071;-75
2021/03/26 08:02:32;;;;;;;11.05;4.20;;;17.90;34.60;;;;;;6245014;23;20024;-73
2021/03/26 08:05:25;;;;;;;9.55;4.00;;;18.30;33.50;;;;;;6257329;23;20050;-73
2021/03/26 08:08:23;;;;;;;12.35;5.15;;;18.70;34.50;;;;;;6206199;23;20307;-74
2021/03/26 08:11:08;;;;;;;15.07;5.30;;;18.70;33.90;;;;;;6206941;23;20035;-73
2021/03/26 08:13:45;;;;;;;9.43;5.45;;;18.80;34.40;;;;;;6242292;23;20005;-72
2021/03/26 08:16:43;;;;;;;14.80;5.60;;;19.00;32.90;;;;;;6228798;23;20064;-73
2021/03/26 08:19:20;;;;;;;13.07;5.90;;;19.10;33.60;;;;;;6211736;23;20005;-73
2021/03/26 08:22:24;;;;;;;13.73;5.47;;;19.20;33.20;;;;;;6236864;23;20009;-73
2021/03/26 08:25:05;;;;;;;15.98;7.20;;;19.10;32.80;;;;;;6250594;23;20003;-73
2021/03/26 08:27:39;;;;;;;14.77;6.72;;;19.00;33.90;;;;;;6238958;23;20267;-73
2021/03/26 08:30:17;;;;;;;15.10;6.72;;;18.60;31.90;;;;;;6241722;23;20056;-73
2021/03/26 08:33:00;;;;;;;15.75;7.60;;;18.50;33.20;;;;;;6204357;23;20032;-73
2021/03/26 08:36:02;;;;;;;15.27;8.70;;;18.40;33.90;;;;;;6231046;23;20000;-73
2021/03/26 08:38:34;;;;;;;22.27;8.88;;;18.30;33.30;;;;;;6230678;23;20008;-73
2021/03/26 08:41:20;;;;;;;21.88;8.30;;;18.30;35.00;;;;;;6232602;23;20004;-73
2021/03/26 08:43:50;;;;;;;14.48;7.53;;;18.30;35.10;;;;;;6237185;23;20008;-73
2021/03/26 08:46:19;;;;;;;16.05;8.48;;;18.10;35.60;;;;;;6235068;23;20161;-73
2021/03/26 08:48:59;;;;;;;18.65;8.45;;;18.10;34.60;;;;;;6237450;23;20228;-71
2021/03/26 08:51:42;;;;;;;20.73;8.60;;;18.00;35.40;;;;;;6241661;23;19996;-70
2021/03/26 08:54:16;;;;;;;19.17;7.70;;;18.10;34.60;;;;;;6241214;23;19996;-70
2021/03/26 08:57:16;;;;;;;15.00;8.07;;;18.20;35.80;;;;;;6255604;23;20243;-71
2021/03/26 09:00:19;;;;;;;18.23;8.95;;;18.20;35.60;;;;;;6229141;23;20076;-75
2021/03/26 09:03:07;;;;;;;14.43;8.35;;;18.30;35.60;;;;;;6255808;23;20016;-75
2021/03/26 09:05:50;;;;;;;15.35;8.18;;;18.20;34.60;;;;;;6233746;23;20011;-73
2021/03/26 09:08:32;;;;;;;15.70;8.57;;;18.30;35.40;;;;;;6234135;23;20291;-77
2021/03/26 09:11:21;;;;;;;;;;;18.30;34.90;;;;;;6231760;23;20068;-76
2021/03/26 09:14:07;;;;;;;16.90;7.95;;;18.40;34.30;;;;;;6243491;22;19906;-78
2021/03/26 09:16:45;;;;;;;16.48;8.90;;;18.50;35.10;;;;;;6233900;23;20054;-77
2021/03/26 09:19:19;;;;;;;18.58;8.73;;;18.40;34.10;;;;;;6237456;23;20344;-77
2021/03/26 09:22:07;;;;;;;17.25;7.45;;;18.40;33.60;;;;;;6212245;23;20060;-79
2021/03/26 09:24:40;;;;;;;15.65;7.32;;;18.60;34.50;;;;;;6193862;23;20295;-78
2021/03/26 09:27:23;;;;;;;14.93;7.53;;;18.80;35.00;;;;;;6241083;23;20183;-79
2021/03/26 09:29:59;;;;;;;14.07;7.55;;;19.00;33.70;;;;;;6229501;23;20012;-77
2021/03/26 09:32:34;;;;;;;15.02;7.78;;;19.00;33.50;;;;;;6205114;23;20305;-78
2021/03/26 09:35:28;;;;;;;19.67;8.00;;;19.10;33.30;;;;;;6226663;23;20009;-72
2021/03/26 09:38:27;;;;;;;15.80;7.65;;;19.20;33.50;;;;;;6250744;23;20015;-75
2021/03/26 09:41:05;;;;;;;16.10;6.60;;;19.30;33.40;;;;;;6239733;22;20043;-73
2021/03/26 09:43:42;;;;;;;14.25;7.00;;;19.50;34.70;;;;;;6202588;23;20041;-72
2021/03/26 09:46:13;;;;;;;11.85;6.65;;;19.30;33.20;;;;;;6262651;23;20302;-72
2021/03/26 09:49:16;;;;;;;15.02;6.55;;;19.40;33.70;;;;;;6238422;23;19996;-73
2021/03/26 09:51:45;;;;;;;14.43;6.90;;;19.50;33.40;;;;;;6263761;23;20027;-72
2021/03/26 09:54:15;;;;;;;13.52;6.93;;;19.60;32.80;;;;;;6267851;23;19996;-72
2021/03/26 09:56:43;;;;;;;18.30;7.20;;;19.80;33.50;;;;;;6229037;23;20012;-72
2021/03/26 09:59:33;;;;;;;14.35;7.10;;;19.90;33.40;;;;;;6203384;23;20008;-71
2021/03/26 10:02:22;;;;;;;14.82;7.43;;;19.90;33.60;;;;;;6257567;23;20027;-74
2021/03/26 10:04:56;;;;;;;13.82;7.82;;;20.00;33.30;;;;;;6233627;23;20210;-71
2021/03/26 10:07:35;;;;;;;13.15;7.75;;;20.00;33.20;;;;;;6235059;23;20063;-73
2021/03/26 10:13:10;;;;;;;15.35;7.72;;;19.80;33.40;;;;;;6166908;23;20012;-73
2021/03/26 10:16:02;;;;;;;14.60;7.50;;;19.90;32.60;;;;;;6237444;23;20039;-72
2021/03/26 10:18:35;;;;;;;18.25;8.23;;;20.00;33.10;;;;;;6261316;23;19996;-71
2021/03/26 10:21:00;;;;;;;15.10;7.55;;;19.90;33.50;;;;;;6236877;23;19997;-72
2021/03/26 10:23:52;;;;;;;20.52;8.68;;;20.10;33.00;;;;;;6252880;23;20015;-72
2021/03/26 10:26:32;;;;;;;16.48;7.80;;;19.90;32.90;;;;;;6233034;23;20008;-72
2021/03/26 10:29:18;;;;;;;14.70;7.40;;;20.00;33.10;;;;;;6257276;23;20008;-72
2021/03/26 10:31:45;;;;;;;15.10;7.38;;;20.10;33.10;;;;;;6232314;23;20000;-69
2021/03/26 10:34:11;;;;;;;15.73;7.85;;;20.30;32.20;;;;;;6234858;23;20161;-71
2021/03/26 10:36:42;;;;;;;14.93;7.45;;;20.30;33.00;;;;;;6237008;23;20114;-72
2021/03/26 10:39:27;;;;;;;18.83;7.70;;;20.40;32.20;;;;;;6267304;23;20031;-71
2021/03/26 10:42:16;;;;;;;18.85;7.60;;;20.40;32.80;;;;;;6228443;23;20066;-71
2021/03/26 10:45:03;;;;;;;12.10;7.28;;;20.30;32.20;;;;;;6198606;23;20035;-71
2021/03/26 10:47:39;;;;;;;14.32;7.07;;;20.30;30.40;;;;;;6228844;22;20015;-71
2021/03/26 10:50:11;;;;;;;11.55;6.88;;;19.70;31.60;;;;;;6223981;23;20036;-72
2021/03/26 10:52:45;;;;;;;14.43;6.95;;;20.00;32.50;;;;;;6258607;23;20195;-71
2021/03/26 10:55:14;;;;;;;15.82;8.00;;;20.10;32.60;;;;;;6210662;23;20000;-71
2021/03/26 10:57:59;;;;;;;13.55;6.95;;;20.10;31.60;;;;;;6236999;23;20012;-71
2021/03/26 11:00:35;;;;;;;12.10;6.63;;;20.00;30.70;;;;;;6241591;23;19996;-71
2021/03/26 11:03:06;;;;;;;17.98;7.05;;;20.10;31.20;;;;;;6216532;23;20011;-71
2021/03/26 11:05:38;;;;;;;16.75;7.18;;;20.20;31.90;;;;;;6202415;23;20009;-70
2021/03/26 11:08:03;;;;;;;20.67;7.63;;;20.30;31.40;;;;;;6175318;23;20028;-70
2021/03/26 11:10:29;;;;;;;14.70;6.82;;;20.30;32.30;;;;;;6243688;23;20034;-69
2021/03/26 11:13:00;;;;;;;14.05;6.63;;;20.40;32.30;;;;;;6253221;22;20004;-70
2021/03/26 11:15:27;;;;;;;16.25;7.55;;;20.60;31.20;;;;;;6173399;23;20000;-70
2021/03/26 11:18:19;;;;;;;13.45;6.60;;;20.60;30.70;;;;;;6240267;23;19996;-70
2021/03/26 11:20:48;;;;;;;13.65;6.10;;;20.80;32.20;;;;;;6254482;23;20012;-70
2021/03/26 11:23:28;;;;;;;12.75;6.53;;;20.80;32.00;;;;;;6257026;23;20215;-69
2021/03/26 11:26:08;;;;;;;12.85;5.85;;;20.90;31.90;;;;;;6231247;23;20050;-70
2021/03/26 11:28:52;;;;;;;12.00;6.13;;;20.90;31.30;;;;;;6207198;23;20008;-70
2021/03/26 11:31:25;;;;;;;9.73;5.47;;;21.00;31.80;;;;;;6236532;23;19996;-70
2021/03/26 11:34:00;;;;;;;9.82;5.40;;;21.10;31.40;;;;;;6235357;23;20003;-70
2021/03/26 11:36:34;;;;;;;11.27;5.38;;;21.00;31.20;;;;;;6238167;23;19996;-70
2021/03/26 11:39:25;;;;;;;10.45;5.80;;;21.00;28.50;;;;;;6241373;23;20000;-70
2021/03/26 11:42:13;;;;;;;11.40;5.97;;;21.00;29.90;;;;;;6217078;23;20322;-70
2021/03/26 11:44:42;;;;;;;12.38;5.57;;;20.70;28.80;;;;;;6228108;23;20227;-70
2021/03/26 11:47:29;;;;;;;13.45;5.80;;;20.70;30.20;;;;;;6230703;23;20005;-70
2021/03/26 11:50:04;;;;;;;12.48;5.78;;;20.80;28.90;;;;;;6234295;23;20050;-70
2021/03/26 11:52:38;;;;;;;11.55;5.95;;;21.00;28.10;;;;;;6257718;23;20000;-70
2021/03/26 11:55:29;;;;;;;13.40;6.10;;;21.10;28.30;;;;;;6227143;23;20001;-70
2021/03/26 11:58:02;;;;;;;12.63;5.40;;;20.70;27.80;;;;;;6215521;23;19993;-70
2021/03/26 12:00:29;;;;;;;8.07;4.70;;;20.70;28.50;;;;;;6237112;23;20022;-70
2021/03/26 12:03:01;;;;;;;10.07;5.65;;;20.80;29.00;;;;;;6206051;23;20017;-71
2021/03/26 12:05:37;;;;;;;10.43;5.90;;;21.10;29.70;;;;;;6195886;23;20004;-71
2021/03/26 12:08:23;;;;;;;10.25;5.18;;;21.20;28.50;;;;;;6227360;23;20005;-71
2021/03/26 12:11:05;;;;;;;8.75;4.93;;;20.90;26.40;;;;;;6203082;23;20004;-70
2021/03/26 12:13:38;;;;;;;10.27;4.88;;;21.00;28.30;;;;;;6205256;23;20052;-71
2021/03/26 12:16:15;;;;;;;9.05;4.50;;;21.00;28.00;;;;;;6231341;23;20060;-68
2021/03/26 12:19:14;;;;;;;10.52;4.97;;;21.10;28.30;;;;;;6234017;23;20046;-68
2021/03/26 12:21:58;;;;;;;10.88;4.95;;;20.90;27.80;;;;;;6232339;23;20016;-68
2021/03/26 12:25:04;;;;;;;13.00;4.95;;;20.60;27.70;;;;;;6233685;23;20000;-69
2021/03/26 12:27:30;;;;;;;10.27;4.85;;;20.40;28.30;;;;;;6177541;23;20064;-68
2021/03/26 12:30:09;;;;;;;10.77;4.38;;;20.30;28.20;;;;;;6236360;23;20009;-68
2021/03/26 12:32:37;;;;;;;8.05;4.35;;;20.30;29.70;;;;;;6226771;23;20005;-74
2021/03/26 12:35:41;;;;;;;8.35;4.47;;;20.30;30.50;;;;;;6226663;23;20004;-71
2021/03/26 12:38:19;;;;;;;10.55;4.63;;;20.10;27.80;;;;;;6228430;23;20001;-70
2021/03/26 12:41:05;;;;;;;7.93;4.78;;;20.00;28.10;;;;;;6229319;23;20059;-71
2021/03/26 12:43:30;;;;;;;7.55;4.45;;;19.60;28.30;;;;;;6230522;23;20342;-70
2021/03/26 12:46:04;;;;;;;10.57;5.03;;;19.40;29.00;;;;;;6233010;23;19996;-71
2021/03/26 12:48:48;;;;;;;12.27;4.93;;;19.40;28.10;;;;;;6233207;23;20020;-71
2021/03/26 12:51:21;;;;;;;9.55;4.22;;;19.30;29.20;;;;;;6212894;23;20062;-67
2021/03/26 12:53:50;;;;;;;13.98;5.03;;;19.30;30.60;;;;;;6226279;23;20031;-68
2021/03/26 12:56:34;;;;;;;15.65;4.85;;;19.30;29.40;;;;;;6224669;23;20009;-68
2021/03/26 12:59:10;;;;;;;10.18;4.90;;;19.40;29.30;;;;;;6201713;23;20024;-68
2021/03/26 13:01:57;;;;;;;11.50;5.00;;;19.30;30.40;;;;;;6203485;23;20075;-68
2021/03/26 13:04:32;;;;;;;8.77;4.60;;;19.40;31.90;;;;;;6229455;23;20011;-69
2021/03/26 13:06:59;;;;;;;9.50;4.70;;;19.80;33.80;;;;;;6232462;23;20027;-70
2021/03/26 13:09:53;;;;;;;15.05;5.40;;;19.90;33.80;;;;;;6233298;23;20004;-68
2021/03/26 13:12:30;;;;;;;8.82;4.85;;;20.20;33.30;;;;;;6203268;23;20019;-69
2021/03/26 13:15:14;;;;;;;9.25;4.47;;;20.20;29.40;;;;;;6224704;23;20009;-69
2021/03/26 13:17:39;;;;;;;11.18;5.28;;;20.20;30.10;;;;;;6224249;23;20184;-68
2021/03/26 13:20:09;;;;;;;9.65;4.75;;;20.30;28.00;;;;;;6225587;23;20009;-71
2021/03/26 13:22:42;;;;;;;10.77;5.28;;;20.30;28.50;;;;;;6203961;23;20020;-71
2021/03/26 13:25:48;;;;;;;7.45;4.07;;;20.30;28.50;;;;;;6206000;23;20299;-71
2021/03/26 13:28:25;;;;;;;8.95;4.40;;;20.40;29.30;;;;;;6139499;23;20118;-71
2021/03/26 13:31:08;;;;;;;9.82;4.15;;;20.60;27.80;;;;;;6219451;23;20058;-70
2021/03/26 13:33:36;;;;;;;8.27;4.07;;;20.60;26.60;;;;;;6232651;23;20023;-71
2021/03/26 13:36:10;;;;;;;8.90;3.75;;;20.40;26.10;;;;;;6236739;23;19996;-71
2021/03/26 13:38:40;;;;;;;8.50;3.42;;;20.50;27.00;;;;;;6200656;23;20028;-71
2021/03/26 13:41:48;;;;;;;7.35;3.53;;;20.60;27.10;;;;;;6226976;23;20013;-71
2021/03/26 13:44:32;;;;;;;7.65;3.63;;;20.70;26.30;;;;;;6163778;23;20063;-71
2021/03/26 13:47:22;;;;;;;14.88;7.18;;;20.70;25.80;;;;;;6195495;23;20020;-71